createdAt,value
2022-09-29T00:00:21.232Z,98931.92
2022-09-29T00:03:46.422Z,98931.71
2022-09-29T00:06:51.895Z,98930.53
2022-09-29T00:09:57.145Z,98932.56
2022-09-29T00:13:02.376Z,98936.09
2022-09-29T00:16:08.250Z,98940.89
2022-09-29T00:19:13.658Z,98940.56
2022-09-29T00:22:19.246Z,98940.20
2022-09-29T00:25:24.493Z,98941.43
2022-09-29T00:28:30.048Z,98941.00
2022-09-29T00:31:35.384Z,98942.35
2022-09-29T00:34:40.866Z,98944.29
2022-09-29T00:37:46.289Z,98944.80
2022-09-29T00:40:51.700Z,98940.77
2022-09-29T00:43:58.720Z,98946.51
2022-09-29T00:47:04.534Z,98944.06
2022-09-29T00:50:14.330Z,98945.83
2022-09-29T00:53:21.710Z,98946.30
2022-09-29T00:56:27.779Z,98942.67
2022-09-29T00:59:38.365Z,98945.67
2022-09-29T01:02:45.524Z,98949.27
2022-09-29T01:05:52.927Z,98947.85
2022-09-29T01:09:01.469Z,98943.83
2022-09-29T01:12:07.435Z,98952.52
2022-09-29T01:15:13.773Z,98951.08
2022-09-29T01:18:19.046Z,98957.49
2022-09-29T01:21:30.110Z,98957.24
2022-09-29T01:24:51.623Z,98958.16
2022-09-29T01:28:12.316Z,98962.36
2022-09-29T01:31:22.426Z,98970.92
2022-09-29T01:34:34.911Z,98968.06
2022-09-29T01:37:45.397Z,98970.33
2022-09-29T01:40:55.963Z,98967.48
2022-09-29T01:44:05.659Z,98967.13
2022-09-29T01:47:13.219Z,98964.69
2022-09-29T01:50:21.399Z,98969.25
2022-09-29T01:53:29.718Z,98968.46
2022-09-29T01:56:38.035Z,98971.81
2022-09-29T01:59:46.141Z,98975.90
2022-09-29T02:02:53.898Z,98977.61
2022-09-29T02:06:00.657Z,98980.02
2022-09-29T02:09:10.147Z,98977.57
2022-09-29T02:12:18.191Z,98983.19
2022-09-29T02:15:26.943Z,98981.40
2022-09-29T02:18:35.066Z,98984.14
2022-09-29T02:21:40.437Z,98987.03
2022-09-29T02:24:45.753Z,98989.64
2022-09-29T02:27:51.383Z,98991.92
2022-09-29T02:30:56.683Z,98994.00
2022-09-29T02:34:03.057Z,98997.59
2022-09-29T02:37:13.687Z,98999.49
2022-09-29T02:40:25.469Z,99001.61
2022-09-29T02:43:40.882Z,98999.95
2022-09-29T02:46:54.853Z,99000.52
2022-09-29T02:50:16.361Z,98999.63
2022-09-29T02:53:30.146Z,99007.05
2022-09-29T02:56:42.121Z,99010.27
2022-09-29T02:59:52.028Z,99014.80
2022-09-29T03:02:57.356Z,99018.06
2022-09-29T03:06:02.646Z,99017.24
2022-09-29T03:09:08.188Z,99020.69
2022-09-29T03:12:13.535Z,99022.32
2022-09-29T03:15:19.135Z,99026.55
2022-09-29T03:18:24.529Z,99027.36
2022-09-29T03:21:29.833Z,99030.39
2022-09-29T03:24:36.168Z,99038.06
2022-09-29T03:27:41.556Z,99038.05
2022-09-29T03:30:46.776Z,99041.30
2022-09-29T03:33:52.132Z,99041.42
2022-09-29T03:36:57.935Z,99041.23
2022-09-29T03:40:04.021Z,99046.23
2022-09-29T03:43:09.479Z,99048.14
2022-09-29T03:46:14.798Z,99051.71
2022-09-29T03:49:20.070Z,99054.63
2022-09-29T03:52:25.599Z,99057.88
2022-09-29T03:55:31.061Z,99057.17
2022-09-29T03:58:36.417Z,99065.66
2022-09-29T04:01:41.657Z,99065.73
2022-09-29T04:04:46.945Z,99065.91
2022-09-29T04:07:52.182Z,99070.02
2022-09-29T04:11:00.240Z,99075.92
2022-09-29T04:14:05.533Z,99074.92
2022-09-29T04:17:11.322Z,99077.94
2022-09-29T04:20:16.828Z,99078.67
2022-09-29T04:23:22.593Z,99081.55
2022-09-29T04:26:27.859Z,99087.77
2022-09-29T04:29:33.292Z,99089.11
2022-09-29T04:32:38.865Z,99094.27
2022-09-29T04:35:44.212Z,99097.77
2022-09-29T04:38:51.669Z,99098.28
2022-09-29T04:41:56.843Z,99106.51
2022-09-29T04:45:02.427Z,99109.80
2022-09-29T04:48:07.782Z,99114.96
2022-09-29T04:51:13.198Z,99120.77
2022-09-29T04:54:18.515Z,99119.16
2022-09-29T04:57:24.084Z,99118.63
2022-09-29T05:00:29.403Z,99121.07
2022-09-29T05:03:36.095Z,99121.95
2022-09-29T05:06:41.285Z,99124.83
2022-09-29T05:09:46.624Z,99127.89
2022-09-29T05:12:52.196Z,99132.53
2022-09-29T05:15:57.904Z,99135.60
2022-09-29T05:19:06.220Z,99137.64
2022-09-29T05:22:11.487Z,99136.75
2022-09-29T05:25:16.846Z,99133.02
2022-09-29T05:28:22.266Z,99133.08
2022-09-29T05:31:27.714Z,99131.25
2022-09-29T05:34:32.883Z,99132.75
2022-09-29T05:37:38.180Z,99130.38
2022-09-29T05:40:43.598Z,99128.91
2022-09-29T05:43:49.129Z,99130.54
2022-09-29T05:46:54.297Z,99135.70
2022-09-29T05:49:59.885Z,99131.01
2022-09-29T05:53:05.471Z,99134.42
2022-09-29T05:56:12.100Z,99135.79
2022-09-29T05:59:17.653Z,99135.67
2022-09-29T06:02:23.423Z,99141.91
2022-09-29T06:05:29.239Z,99147.48
2022-09-29T06:08:34.998Z,99147.21
2022-09-29T06:11:40.604Z,99148.25
2022-09-29T06:14:46.000Z,99147.17
2022-09-29T06:17:55.819Z,99151.21
2022-09-29T06:21:05.063Z,99145.57
2022-09-29T06:24:10.689Z,99144.83
2022-09-29T06:27:17.515Z,99147.95
2022-09-29T06:30:22.835Z,99150.38
2022-09-29T06:33:28.129Z,99153.86
2022-09-29T06:36:53.694Z,99151.16
2022-09-29T06:39:59.049Z,99155.19
2022-09-29T06:43:04.404Z,99156.85
2022-09-29T06:46:12.940Z,99156.15
2022-09-29T06:49:18.564Z,99160.31
2022-09-29T06:52:29.095Z,99153.44
2022-09-29T06:55:35.227Z,99156.35
2022-09-29T06:58:40.655Z,99155.08
2022-09-29T07:01:51.282Z,99155.11
2022-09-29T07:04:57.887Z,99159.18
2022-09-29T07:08:04.547Z,99162.09
2022-09-29T07:11:10.583Z,99167.97
2022-09-29T07:14:16.216Z,99170.24
2022-09-29T07:17:21.724Z,99174.88
2022-09-29T07:20:27.247Z,99176.95
2022-09-29T07:23:32.397Z,99182.27
2022-09-29T07:26:38.222Z,99181.06
2022-09-29T07:29:45.938Z,99183.98
2022-09-29T07:33:01.223Z,99188.34
2022-09-29T07:36:08.132Z,99192.92
2022-09-29T07:39:13.408Z,99194.02
2022-09-29T07:42:19.724Z,99201.00
2022-09-29T07:45:33.478Z,99203.72
2022-09-29T07:48:39.922Z,99207.07
2022-09-29T07:51:45.094Z,99210.65
2022-09-29T07:54:50.365Z,99207.80
2022-09-29T07:57:56.928Z,99210.65
2022-09-29T08:01:04.469Z,99213.06
2022-09-29T08:04:09.899Z,99213.77
2022-09-29T08:07:15.432Z,99218.27
2022-09-29T08:10:21.399Z,99216.71
2022-09-29T08:13:26.618Z,99216.78
2022-09-29T08:16:32.641Z,99220.81
2022-09-29T08:19:38.329Z,99223.48
2022-09-29T08:22:43.865Z,99223.30
2022-09-29T08:25:58.905Z,99226.25
2022-09-29T08:29:08.747Z,99229.34
2022-09-29T08:32:15.568Z,99229.52
2022-09-29T08:35:21.165Z,99232.08
2022-09-29T08:38:27.047Z,99234.35
2022-09-29T08:41:38.676Z,99242.17
2022-09-29T08:44:46.734Z,99237.14
2022-09-29T08:47:53.004Z,99242.89
2022-09-29T08:50:59.419Z,99244.98
2022-09-29T08:54:09.984Z,99252.55
2022-09-29T08:57:18.600Z,99258.10
2022-09-29T09:00:26.990Z,99259.00
2022-09-29T09:03:56.465Z,99263.56
2022-09-29T09:07:07.903Z,99265.86
2022-09-29T09:10:22.473Z,99265.90
2022-09-29T09:13:32.515Z,99264.91
2022-09-29T09:16:41.392Z,99268.90
2022-09-29T09:19:55.472Z,99267.73
2022-09-29T09:23:03.080Z,99278.63
2022-09-29T09:26:10.592Z,99275.27
2022-09-29T09:29:19.809Z,99283.42
2022-09-29T09:32:27.355Z,99290.05
2022-09-29T09:35:40.485Z,99298.11
2022-09-29T09:38:51.500Z,99301.27
2022-09-29T09:42:01.192Z,99302.64
2022-09-29T09:45:12.126Z,99305.34
2022-09-29T09:48:23.129Z,99309.44
2022-09-29T09:54:56.961Z,99312.59
2022-09-29T09:58:11.943Z,99312.45
2022-09-29T10:01:17.980Z,99309.33
2022-09-29T10:04:26.507Z,99309.59
2022-09-29T10:07:34.809Z,99308.15
2022-09-29T10:10:57.416Z,99308.48
2022-09-29T10:14:07.582Z,99305.37
2022-09-29T10:17:18.316Z,99306.04
2022-09-29T10:20:33.595Z,99309.02
2022-09-29T10:23:38.889Z,99312.70
2022-09-29T10:26:45.785Z,99312.38
2022-09-29T10:29:52.929Z,99307.52
2022-09-29T10:33:00.288Z,99309.51
2022-09-29T10:36:09.605Z,99309.84
2022-09-29T10:39:28.529Z,99313.31
2022-09-29T10:42:36.172Z,99309.27
2022-09-29T10:45:49.315Z,99311.60
2022-09-29T10:49:09.685Z,99311.11
2022-09-29T10:52:23.089Z,99311.89
2022-09-29T10:55:29.209Z,99314.34
2022-09-29T10:58:53.278Z,99312.23
2022-09-29T11:02:02.773Z,99310.95
2022-09-29T11:05:24.774Z,99315.15
2022-09-29T11:08:31.301Z,99326.23
2022-09-29T11:11:39.547Z,99337.52
2022-09-29T11:14:44.830Z,99340.27
2022-09-29T11:17:52.041Z,99347.71
2022-09-29T11:21:02.536Z,99348.95
2022-09-29T11:24:13.554Z,99350.45
2022-09-29T11:27:26.640Z,99352.33
2022-09-29T11:30:36.679Z,99352.89
2022-09-29T11:33:48.649Z,99355.00
2022-09-29T11:40:13.217Z,99355.39
2022-09-29T11:43:27.479Z,99353.66
2022-09-29T11:46:44.355Z,99348.88
2022-09-29T11:49:58.989Z,99357.61
2022-09-29T11:53:18.920Z,99365.38
2022-09-29T11:56:31.970Z,99362.96
2022-09-29T11:59:50.980Z,99364.44
2022-09-29T12:03:10.731Z,99366.27
2022-09-29T12:06:32.138Z,99365.60
2022-09-29T12:09:57.388Z,99364.11
2022-09-29T12:13:09.574Z,99360.38
2022-09-29T12:16:16.725Z,99364.45
2022-09-29T12:19:24.726Z,99370.80
2022-09-29T12:22:33.202Z,99373.11
2022-09-29T12:25:46.000Z,99374.29
2022-09-29T12:28:53.603Z,99377.35
2022-09-29T12:32:00.966Z,99381.23
2022-09-29T12:35:12.854Z,99382.59
2022-09-29T12:38:21.219Z,99383.88
2022-09-29T12:41:27.368Z,99392.00
2022-09-29T12:44:37.509Z,99393.08
2022-09-29T12:47:49.246Z,99393.89
2022-09-29T12:50:59.374Z,99393.30
2022-09-29T12:54:15.769Z,99396.91
2022-09-29T12:57:23.493Z,99395.30
2022-09-29T13:00:32.302Z,99398.09
2022-09-29T13:03:44.161Z,99396.02
2022-09-29T13:07:09.507Z,99395.17
2022-09-29T13:10:28.593Z,99394.44
2022-09-29T13:13:40.846Z,99399.11
2022-09-29T13:16:56.690Z,99401.36
2022-09-29T13:20:12.203Z,99401.80
2022-09-29T13:23:31.740Z,99400.23
2022-09-29T13:26:42.748Z,99397.18
2022-09-29T13:29:50.421Z,99402.19
2022-09-29T13:32:58.215Z,99400.46
2022-09-29T13:36:04.192Z,99394.73
2022-09-29T13:39:20.553Z,99395.45
2022-09-29T13:42:42.393Z,99397.08
2022-09-29T13:45:48.638Z,99389.86
2022-09-29T13:48:55.818Z,99391.50
2022-09-29T13:52:26.060Z,99393.33
2022-09-29T13:55:44.963Z,99401.78
2022-09-29T13:59:01.987Z,99398.50
2022-09-29T14:02:21.463Z,99402.79
2022-09-29T14:05:43.120Z,99410.06
2022-09-29T14:08:51.654Z,99413.08
2022-09-29T14:11:58.114Z,99416.09
2022-09-29T14:15:04.578Z,99422.34
2022-09-29T14:18:17.848Z,99417.39
2022-09-29T14:21:41.734Z,99420.03
2022-09-29T14:24:51.633Z,99419.72
2022-09-29T14:28:03.888Z,99427.98
2022-09-29T14:31:18.331Z,99427.40
2022-09-29T14:34:25.307Z,99429.17
2022-09-29T14:37:33.817Z,99432.05
2022-09-29T14:40:39.323Z,99432.64
2022-09-29T14:43:46.385Z,99433.63
2022-09-29T14:47:19.278Z,99438.54
2022-09-29T14:51:08.515Z,99442.56
2022-09-29T14:54:20.209Z,99444.63
2022-09-29T14:57:34.304Z,99441.38
2022-09-29T15:00:49.198Z,99443.86
2022-09-29T15:03:56.352Z,99443.55
2022-09-29T15:07:05.175Z,99447.85
2022-09-29T15:10:21.584Z,99452.62
2022-09-29T15:13:31.516Z,99454.58
2022-09-29T15:16:41.741Z,99458.05
2022-09-29T15:19:55.434Z,99459.68
2022-09-29T15:23:07.871Z,99462.23
2022-09-29T15:26:14.952Z,99466.59
2022-09-29T15:29:21.040Z,99468.98
2022-09-29T15:32:28.476Z,99472.73
2022-09-29T15:35:39.059Z,99468.84
2022-09-29T15:38:44.649Z,99471.00
2022-09-29T15:42:00.507Z,99478.32
2022-09-29T15:45:13.969Z,99481.69
2022-09-29T15:48:19.135Z,99485.83
2022-09-29T15:51:25.990Z,99488.98
2022-09-29T15:57:50.377Z,99488.52
2022-09-29T16:01:02.791Z,99495.70
2022-09-29T16:04:09.796Z,99493.27
2022-09-29T16:07:21.273Z,99495.23
2022-09-29T16:10:28.983Z,99502.02
2022-09-29T16:13:37.138Z,99510.30
2022-09-29T16:16:45.382Z,99511.84
2022-09-29T16:19:52.086Z,99510.77
2022-09-29T16:22:57.640Z,99510.14
2022-09-29T16:26:14.428Z,99509.91
2022-09-29T16:29:39.692Z,99515.08
2022-09-29T16:32:45.130Z,99512.38
2022-09-29T16:36:07.062Z,99514.88
2022-09-29T16:39:20.017Z,99520.67
2022-09-29T16:42:27.608Z,99518.83
2022-09-29T16:45:32.988Z,99523.75
2022-09-29T16:48:41.526Z,99529.16
2022-09-29T16:51:50.374Z,99534.02
2022-09-29T16:55:08.081Z,99530.88
2022-09-29T16:58:15.163Z,99533.52
2022-09-29T17:01:20.571Z,99536.01
2022-09-29T17:04:26.059Z,99540.98
2022-09-29T17:07:31.358Z,99540.30
2022-09-29T17:10:36.683Z,99547.77
2022-09-29T17:13:42.734Z,99556.27
2022-09-29T17:16:51.778Z,99560.68
2022-09-29T17:19:57.537Z,99567.60
2022-09-29T17:23:04.770Z,99571.58
2022-09-29T17:26:32.530Z,99574.00
2022-09-29T17:29:37.968Z,99575.13
2022-09-29T17:32:44.382Z,99580.48
2022-09-29T17:35:56.078Z,99584.73
2022-09-29T17:39:01.963Z,99584.96
2022-09-29T17:42:07.978Z,99589.47
2022-09-29T17:45:13.314Z,99595.35
2022-09-29T17:48:20.135Z,99594.04
2022-09-29T17:51:25.596Z,99598.55
2022-09-29T17:54:31.304Z,99598.35
2022-09-29T17:57:36.600Z,99597.80
2022-09-29T18:00:42.030Z,99598.67
2022-09-29T18:03:47.375Z,99604.80
2022-09-29T18:06:52.744Z,99604.81
2022-09-29T18:09:58.242Z,99605.23
2022-09-29T18:13:04.126Z,99613.98
2022-09-29T18:16:15.159Z,99616.01
2022-09-29T18:19:20.670Z,99613.92
2022-09-29T18:22:25.947Z,99617.23
2022-09-29T18:25:32.812Z,99619.77
2022-09-29T18:28:38.117Z,99619.67
2022-09-29T18:31:44.495Z,99621.88
2022-09-29T18:34:49.973Z,99626.42
2022-09-29T18:37:55.270Z,99624.60
2022-09-29T18:41:01.502Z,99629.98
2022-09-29T18:44:11.192Z,99637.44
2022-09-29T18:47:16.947Z,99644.91
2022-09-29T18:50:23.544Z,99648.17
2022-09-29T18:53:29.167Z,99650.95
2022-09-29T18:56:34.607Z,99653.14
2022-09-29T18:59:39.904Z,99657.14
2022-09-29T19:02:45.622Z,99659.30
2022-09-29T19:05:51.631Z,99665.13
2022-09-29T19:08:58.017Z,99662.01
2022-09-29T19:12:03.778Z,99658.32
2022-09-29T19:15:09.605Z,99658.95
2022-09-29T19:18:18.459Z,99660.89
2022-09-29T19:21:25.034Z,99668.02
2022-09-29T19:24:30.347Z,99670.86
2022-09-29T19:27:35.727Z,99676.01
2022-09-29T19:30:42.078Z,99677.92
2022-09-29T19:33:48.180Z,99677.67
2022-09-29T19:36:53.840Z,99672.77
2022-09-29T19:39:59.203Z,99677.23
2022-09-29T19:43:06.682Z,99677.80
2022-09-29T19:46:13.015Z,99677.34
2022-09-29T19:49:18.687Z,99685.69
2022-09-29T19:52:24.133Z,99686.66
2022-09-29T19:55:29.459Z,99688.67
2022-09-29T19:58:34.926Z,99691.04
2022-09-29T20:01:40.166Z,99696.69
2022-09-29T20:04:45.542Z,99698.89
2022-09-29T20:07:52.124Z,99701.86
2022-09-29T20:11:09.016Z,99705.98
2022-09-29T20:14:16.191Z,99709.01
2022-09-29T20:17:22.134Z,99710.73
2022-09-29T20:20:30.410Z,99714.95
2022-09-29T20:23:37.483Z,99717.83
2022-09-29T20:26:44.373Z,99719.71
2022-09-29T20:29:49.589Z,99722.64
2022-09-29T20:32:54.900Z,99723.83
2022-09-29T20:36:03.868Z,99721.67
2022-09-29T20:39:11.922Z,99718.94
2022-09-29T20:42:18.219Z,99720.42
2022-09-29T20:45:23.669Z,99720.83
2022-09-29T20:48:30.148Z,99729.16
2022-09-29T20:51:38.208Z,99724.10
2022-09-29T20:54:48.005Z,99731.61
2022-09-29T20:58:00.529Z,99735.20
2022-09-29T21:01:13.799Z,99744.65
2022-09-29T21:04:20.565Z,99745.96
2022-09-29T21:07:38.552Z,99749.77
2022-09-29T21:10:43.923Z,99746.11
2022-09-29T21:13:49.699Z,99748.11
2022-09-29T21:16:55.417Z,99748.62
2022-09-29T21:20:00.719Z,99754.33
2022-09-29T21:23:06.019Z,99758.26
2022-09-29T21:26:14.297Z,99766.14
2022-09-29T21:29:20.336Z,99772.87
2022-09-29T21:32:25.738Z,99777.79
2022-09-29T21:35:31.265Z,99782.34
2022-09-29T21:38:37.874Z,99784.98
2022-09-29T21:41:43.798Z,99782.13
2022-09-29T21:44:49.063Z,99783.48
2022-09-29T21:48:09.989Z,99786.02
2022-09-29T21:51:15.947Z,99788.30
2022-09-29T21:54:23.592Z,99788.23
2022-09-29T21:57:29.525Z,99791.47
2022-09-29T22:00:35.588Z,99796.38
2022-09-29T22:03:42.131Z,99799.66
2022-09-29T22:06:47.527Z,99798.65
2022-09-29T22:09:52.982Z,99798.46
2022-09-29T22:12:58.130Z,99798.84
2022-09-29T22:16:05.365Z,99799.97
2022-09-29T22:19:23.025Z,99794.34
2022-09-29T22:22:32.428Z,99796.63
2022-09-29T22:25:43.089Z,99799.69
2022-09-29T22:28:48.534Z,99811.25
2022-09-29T22:31:53.891Z,99814.27
2022-09-29T22:34:59.331Z,99814.98
2022-09-29T22:38:04.940Z,99821.27
2022-09-29T22:41:11.012Z,99830.30
2022-09-29T22:44:17.823Z,99840.05
2022-09-29T22:47:23.248Z,99844.77
2022-09-29T22:50:31.559Z,99846.16
2022-09-29T22:53:38.103Z,99842.66
2022-09-29T22:56:43.381Z,99844.63
2022-09-29T22:59:48.890Z,99852.21
2022-09-29T23:02:54.145Z,99855.36
2022-09-29T23:06:00.204Z,99859.84
2022-09-29T23:09:05.666Z,99858.13
2022-09-29T23:12:12.059Z,99858.89
2022-09-29T23:15:17.615Z,99860.36
2022-09-29T23:18:22.915Z,99869.60
2022-09-29T23:21:28.419Z,99871.81
2022-09-29T23:24:33.624Z,99868.16
2022-09-29T23:27:41.285Z,99868.45
2022-09-29T23:30:46.755Z,99866.41
2022-09-29T23:33:55.982Z,99864.83
2022-09-29T23:37:01.998Z,99865.58
2022-09-29T23:40:09.024Z,99863.59
2022-09-29T23:43:14.283Z,99853.65
2022-09-29T23:46:22.425Z,99848.88
2022-09-29T23:49:29.062Z,99851.70
2022-09-29T23:52:34.655Z,99852.27
2022-09-29T23:55:39.998Z,99856.63
2022-09-29T23:58:45.472Z,99858.16
